createdAt,value
2023-10-12T00:00:49.801Z,102536.47
2023-10-12T00:03:33.116Z,102539.20
2023-10-12T00:06:01.417Z,102529.37
2023-10-12T00:08:32.681Z,102520.77
2023-10-12T00:11:07.810Z,102521.84
2023-10-12T00:13:42.544Z,102515.30
2023-10-12T00:16:11.328Z,102516.48
2023-10-12T00:18:40.068Z,102509.06
2023-10-12T00:21:16.754Z,102504.21
2023-10-12T00:23:48.857Z,102501.33
2023-10-12T00:26:17.185Z,102502.39
2023-10-12T00:28:47.215Z,102499.49
2023-10-12T00:31:20.835Z,102494.52
2023-10-12T00:33:50.041Z,102494.31
2023-10-12T00:36:26.233Z,102497.19
2023-10-12T00:38:57.957Z,102492.41
2023-10-12T00:41:26.722Z,102494.19
2023-10-12T00:44:08.967Z,102494.58
2023-10-12T00:46:38.379Z,102496.87
2023-10-12T00:49:19.903Z,102496.90
2023-10-12T00:51:54.673Z,102498.70
2023-10-12T00:54:42.506Z,102494.54
2023-10-12T00:57:11.008Z,102493.19
2023-10-12T00:59:40.329Z,102494.02
2023-10-12T01:02:11.225Z,102489.27
2023-10-12T01:04:45.990Z,102489.85
2023-10-12T01:07:21.293Z,102488.35
2023-10-12T01:09:50.594Z,102486.23
2023-10-12T01:12:19.576Z,102489.21
2023-10-12T01:14:55.946Z,102488.79
2023-10-12T01:17:31.359Z,102488.42
2023-10-12T01:20:00.149Z,102493.02
2023-10-12T01:22:29.046Z,102493.65
2023-10-12T01:24:57.467Z,102487.17
2023-10-12T01:27:29.374Z,102489.80
2023-10-12T01:30:15.061Z,102489.19
2023-10-12T01:32:43.599Z,102491.30
2023-10-12T01:35:15.512Z,102488.83
2023-10-12T01:37:49.114Z,102490.95
2023-10-12T01:40:22.302Z,102491.23
2023-10-12T01:42:50.736Z,102490.98
2023-10-12T01:45:26.280Z,102490.17
2023-10-12T01:48:13.150Z,102490.30
2023-10-12T01:50:41.718Z,102490.34
2023-10-12T01:53:21.723Z,102489.58
2023-10-12T01:55:55.305Z,102486.96
2023-10-12T01:58:29.465Z,102488.13
2023-10-12T02:01:07.794Z,102487.23
2023-10-12T02:03:44.676Z,102485.16
2023-10-12T02:06:16.192Z,102484.16
2023-10-12T02:08:50.857Z,102481.52
2023-10-12T02:11:19.204Z,102477.59
2023-10-12T02:13:49.447Z,102474.41
2023-10-12T02:16:32.539Z,102475.77
2023-10-12T02:19:05.778Z,102475.06
2023-10-12T02:21:39.353Z,102473.21
2023-10-12T02:24:08.308Z,102473.91
2023-10-12T02:26:39.542Z,102472.45
2023-10-12T02:29:10.190Z,102474.92
2023-10-12T02:31:51.918Z,102473.98
2023-10-12T02:34:29.970Z,102471.12
2023-10-12T02:37:12.176Z,102469.78
2023-10-12T02:39:43.081Z,102465.60
2023-10-12T02:42:19.409Z,102466.79
2023-10-12T02:44:56.207Z,102462.45
2023-10-12T02:47:27.976Z,102463.05
2023-10-12T02:50:03.208Z,102463.75
2023-10-12T02:52:33.790Z,102466.52
2023-10-12T02:55:24.976Z,102465.16
2023-10-12T02:58:01.387Z,102463.24
2023-10-12T03:00:45.209Z,102463.75
2023-10-12T03:03:23.299Z,102466.66
2023-10-12T03:05:54.225Z,102461.79
2023-10-12T03:08:23.645Z,102463.08
2023-10-12T03:11:01.810Z,102460.95
2023-10-12T03:13:36.810Z,102458.73
2023-10-12T03:16:30.804Z,102459.83
2023-10-12T03:19:02.175Z,102459.05
2023-10-12T03:21:34.915Z,102456.39
2023-10-12T03:24:04.727Z,102455.96
2023-10-12T03:26:35.435Z,102454.20
2023-10-12T03:29:15.815Z,102455.26
2023-10-12T03:31:46.748Z,102453.39
2023-10-12T03:34:51.798Z,102456.52
2023-10-12T03:37:31.961Z,102455.67
2023-10-12T03:40:01.011Z,102449.82
2023-10-12T03:42:29.621Z,102450.70
2023-10-12T03:45:26.145Z,102451.96
2023-10-12T03:48:13.064Z,102450.52
2023-10-12T03:50:59.833Z,102447.75
2023-10-12T03:53:28.703Z,102440.37
2023-10-12T03:55:59.585Z,102440.33
2023-10-12T03:58:29.071Z,102442.00
2023-10-12T04:01:15.026Z,102444.83
2023-10-12T04:03:44.996Z,102443.21
2023-10-12T04:06:24.781Z,102447.29
2023-10-12T04:08:56.376Z,102445.98
2023-10-12T04:11:43.362Z,102444.55
2023-10-12T04:14:31.558Z,102446.93
2023-10-12T04:17:10.517Z,102446.99
2023-10-12T04:19:45.275Z,102447.23
2023-10-12T04:22:26.890Z,102443.91
2023-10-12T04:24:56.505Z,102441.98
2023-10-12T04:27:24.876Z,102443.19
2023-10-12T04:30:00.392Z,102443.02
2023-10-12T04:33:00.933Z,102443.54
2023-10-12T04:35:49.250Z,102445.77
2023-10-12T04:38:24.685Z,102451.49
2023-10-12T04:41:12.792Z,102454.11
2023-10-12T04:43:41.049Z,102452.61
2023-10-12T04:46:15.111Z,102457.02
2023-10-12T04:48:44.481Z,102452.59
2023-10-12T04:51:23.218Z,102453.84
2023-10-12T04:54:07.201Z,102456.05
2023-10-12T04:56:38.321Z,102455.34
2023-10-12T04:59:27.634Z,102454.44
2023-10-12T05:02:23.735Z,102457.39
2023-10-12T05:05:11.842Z,102461.46
2023-10-12T05:08:12.160Z,102464.73
2023-10-12T05:10:40.389Z,102462.31
2023-10-12T05:13:12.008Z,102464.88
2023-10-12T05:15:44.287Z,102463.52
2023-10-12T05:18:14.077Z,102466.55
2023-10-12T05:20:42.798Z,102468.98
2023-10-12T05:23:11.917Z,102471.11
2023-10-12T05:25:56.403Z,102470.64
2023-10-12T05:28:32.420Z,102475.23
2023-10-12T05:31:11.325Z,102471.52
2023-10-12T05:33:44.679Z,102470.61
2023-10-12T05:36:15.147Z,102468.73
2023-10-12T05:38:51.033Z,102472.34
2023-10-12T05:41:23.297Z,102470.15
2023-10-12T05:43:54.578Z,102470.00
2023-10-12T05:46:22.892Z,102472.23
2023-10-12T05:48:53.872Z,102474.95
2023-10-12T05:51:23.154Z,102472.07
2023-10-12T05:54:10.841Z,102471.59
2023-10-12T05:56:39.063Z,102477.69
2023-10-12T05:59:11.192Z,102474.89
2023-10-12T06:01:42.194Z,102477.35
2023-10-12T06:04:10.736Z,102474.73
2023-10-12T06:06:43.494Z,102478.21
2023-10-12T06:09:28.269Z,102478.54
2023-10-12T06:11:57.543Z,102479.83
2023-10-12T06:14:25.714Z,102474.67
2023-10-12T06:16:57.649Z,102476.18
2023-10-12T06:19:28.425Z,102478.10
2023-10-12T06:22:01.330Z,102476.70
2023-10-12T06:24:35.312Z,102475.56
2023-10-12T06:27:25.172Z,102478.33
2023-10-12T06:29:55.772Z,102478.50
2023-10-12T06:32:34.613Z,102474.46
2023-10-12T06:35:10.606Z,102476.08
2023-10-12T06:38:01.122Z,102473.02
2023-10-12T06:40:32.206Z,102472.30
2023-10-12T06:43:14.840Z,102470.67
2023-10-12T06:45:50.898Z,102466.41
2023-10-12T06:48:30.673Z,102464.39
2023-10-12T06:51:06.259Z,102461.61
2023-10-12T06:53:36.872Z,102460.13
2023-10-12T06:56:17.558Z,102460.33
2023-10-12T06:59:10.002Z,102459.45
2023-10-12T07:01:52.575Z,102455.80
2023-10-12T07:04:31.044Z,102456.69
2023-10-12T07:07:02.403Z,102459.84
2023-10-12T07:09:42.032Z,102458.02
2023-10-12T07:12:13.463Z,102457.89
2023-10-12T07:14:54.632Z,102457.61
2023-10-12T07:17:32.996Z,102456.84
2023-10-12T07:20:01.832Z,102457.11
2023-10-12T07:22:37.961Z,102455.13
2023-10-12T07:25:06.769Z,102451.65
2023-10-12T07:27:50.693Z,102453.71
2023-10-12T07:30:39.274Z,102452.91
2023-10-12T07:33:08.924Z,102454.02
2023-10-12T07:35:40.254Z,102452.39
2023-10-12T07:38:14.539Z,102456.68
2023-10-12T07:40:58.219Z,102455.52
2023-10-12T07:43:26.856Z,102454.75
2023-10-12T07:45:55.733Z,102456.41
2023-10-12T07:48:43.996Z,102459.76
2023-10-12T07:51:17.347Z,102458.28
2023-10-12T07:53:46.985Z,102454.67
2023-10-12T07:56:18.161Z,102453.20
2023-10-12T07:58:52.073Z,102452.52
2023-10-12T08:01:26.473Z,102451.26
2023-10-12T08:04:00.488Z,102447.46
2023-10-12T08:06:38.382Z,102452.02
2023-10-12T08:09:22.515Z,102448.41
2023-10-12T08:11:50.741Z,102446.20
2023-10-12T08:14:24.699Z,102437.86
2023-10-12T08:17:16.689Z,102436.42
2023-10-12T08:19:45.540Z,102436.71
2023-10-12T08:22:31.402Z,102435.13
2023-10-12T08:25:05.988Z,102431.32
2023-10-12T08:27:45.331Z,102430.23
2023-10-12T08:30:25.454Z,102429.51
2023-10-12T08:33:01.365Z,102426.16
2023-10-12T08:35:52.495Z,102422.54
2023-10-12T08:38:34.474Z,102423.84
2023-10-12T08:41:21.362Z,102423.80
2023-10-12T08:43:54.396Z,102421.95
2023-10-12T08:46:41.287Z,102417.15
2023-10-12T08:49:28.871Z,102418.05
2023-10-12T08:52:19.793Z,102415.95
2023-10-12T08:54:54.439Z,102411.98
2023-10-12T08:57:39.422Z,102411.39
2023-10-12T09:00:26.292Z,102410.04
2023-10-12T09:02:54.517Z,102403.66
2023-10-12T09:05:25.943Z,102403.99
2023-10-12T09:08:12.708Z,102402.15
2023-10-12T09:10:53.411Z,102401.58
2023-10-12T09:13:27.211Z,102403.10
2023-10-12T09:15:58.187Z,102401.03
2023-10-12T09:18:31.782Z,102397.66
2023-10-12T09:21:04.015Z,102397.77
2023-10-12T09:23:39.078Z,102397.65
2023-10-12T09:26:10.602Z,102395.52
2023-10-12T09:28:46.948Z,102387.33
2023-10-12T09:31:16.746Z,102386.65
2023-10-12T09:34:00.370Z,102380.64
2023-10-12T09:36:28.666Z,102373.91
2023-10-12T09:38:58.085Z,102373.30
2023-10-12T09:41:38.956Z,102371.15
2023-10-12T09:44:13.794Z,102368.48
2023-10-12T09:46:48.617Z,102367.60
2023-10-12T09:49:23.188Z,102364.50
2023-10-12T09:51:55.880Z,102360.00
2023-10-12T09:54:46.943Z,102357.11
2023-10-12T09:57:26.981Z,102349.83
2023-10-12T10:00:17.287Z,102342.35
2023-10-12T10:02:50.649Z,102341.66
2023-10-12T10:05:20.383Z,102338.52
2023-10-12T10:07:58.927Z,102338.84
2023-10-12T10:10:35.671Z,102329.83
2023-10-12T10:13:11.868Z,102321.10
2023-10-12T10:16:10.652Z,102317.80
2023-10-12T10:18:49.098Z,102316.11
2023-10-12T10:21:20.825Z,102320.79
2023-10-12T10:23:53.819Z,102318.67
2023-10-12T10:26:25.271Z,102312.94
2023-10-12T10:28:56.625Z,102304.01
2023-10-12T10:31:45.102Z,102302.10
2023-10-12T10:34:13.724Z,102302.77
2023-10-12T10:36:46.243Z,102303.58
2023-10-12T10:39:15.116Z,102300.40
2023-10-12T10:41:56.131Z,102291.03
2023-10-12T10:44:27.582Z,102291.49
2023-10-12T10:47:02.062Z,102290.89
2023-10-12T10:49:34.708Z,102288.75
2023-10-12T10:52:09.422Z,102282.16
2023-10-12T10:54:41.339Z,102279.33
2023-10-12T10:57:36.751Z,102276.30
2023-10-12T11:00:17.827Z,102271.11
2023-10-12T11:02:51.894Z,102271.02
2023-10-12T11:05:30.424Z,102265.85
2023-10-12T11:08:16.897Z,102258.98
2023-10-12T11:11:04.304Z,102257.61
2023-10-12T11:13:33.707Z,102254.41
2023-10-12T11:16:22.104Z,102245.89
2023-10-12T11:18:53.413Z,102244.30
2023-10-12T11:21:26.922Z,102241.27
2023-10-12T11:24:03.092Z,102237.03
2023-10-12T11:26:41.062Z,102235.52
2023-10-12T11:29:12.537Z,102232.45
2023-10-12T11:31:41.127Z,102226.29
2023-10-12T11:34:14.402Z,102230.21
2023-10-12T11:36:42.630Z,102226.45
2023-10-12T11:39:19.639Z,102219.50
2023-10-12T11:42:08.401Z,102214.64
2023-10-12T11:44:38.249Z,102209.23
2023-10-12T11:47:09.391Z,102209.84
2023-10-12T11:49:58.887Z,102203.52
2023-10-12T11:52:32.183Z,102199.38
2023-10-12T11:55:21.550Z,102198.66
2023-10-12T11:57:59.956Z,102197.95
2023-10-12T12:00:31.160Z,102198.70
2023-10-12T12:03:01.717Z,102196.93
2023-10-12T12:05:34.717Z,102192.80
2023-10-12T12:08:12.322Z,102190.61
2023-10-12T12:10:46.809Z,102181.87
2023-10-12T12:13:22.476Z,102176.61
2023-10-12T12:15:54.525Z,102174.73
2023-10-12T12:18:24.211Z,102172.10
2023-10-12T12:20:59.915Z,102170.10
2023-10-12T12:23:29.034Z,102162.47
2023-10-12T12:26:09.407Z,102158.54
2023-10-12T12:28:47.052Z,102158.39
2023-10-12T12:31:16.182Z,102152.71
2023-10-12T12:33:46.367Z,102149.22
2023-10-12T12:36:22.840Z,102143.05
2023-10-12T12:38:59.206Z,102139.06
2023-10-12T12:41:31.680Z,102136.83
2023-10-12T12:44:00.690Z,102134.61
2023-10-12T12:46:32.899Z,102132.98
2023-10-12T12:49:01.985Z,102128.05
2023-10-12T12:51:30.641Z,102124.70
2023-10-12T12:53:58.963Z,102120.71
2023-10-12T12:56:27.290Z,102117.52
2023-10-12T12:58:56.289Z,102115.82
2023-10-12T13:01:25.416Z,102114.63
2023-10-12T13:03:57.032Z,102106.98
2023-10-12T13:06:26.313Z,102106.54
2023-10-12T13:08:54.711Z,102101.72
2023-10-12T13:11:23.651Z,102097.40
2023-10-12T13:13:52.250Z,102092.80
2023-10-12T13:16:20.566Z,102092.48
2023-10-12T13:18:49.818Z,102093.23
2023-10-12T13:21:18.891Z,102089.46
2023-10-12T13:23:47.874Z,102093.76
2023-10-12T13:26:19.411Z,102094.79
2023-10-12T13:28:48.010Z,102091.08
2023-10-12T13:31:16.550Z,102082.58
2023-10-12T13:33:45.216Z,102084.36
2023-10-12T13:36:13.665Z,102083.06
2023-10-12T13:38:43.814Z,102080.42
2023-10-12T13:41:13.193Z,102080.06
2023-10-12T13:43:41.757Z,102072.38
2023-10-12T13:46:10.609Z,102067.77
2023-10-12T13:48:39.774Z,102062.69
2023-10-12T13:51:21.395Z,102060.32
2023-10-12T13:53:53.522Z,102056.37
2023-10-12T13:56:25.730Z,102062.06
2023-10-12T13:59:00.035Z,102060.63
2023-10-12T14:01:35.066Z,102056.78
2023-10-12T14:04:24.217Z,102057.09
2023-10-12T14:06:54.535Z,102051.96
2023-10-12T14:09:29.315Z,102043.29
2023-10-12T14:11:57.957Z,102037.13
2023-10-12T14:14:26.406Z,102037.50
2023-10-12T14:16:54.796Z,102032.79
2023-10-12T14:19:27.560Z,102036.02
2023-10-12T14:21:56.476Z,102034.27
2023-10-12T14:24:29.107Z,102034.65
2023-10-12T14:27:00.308Z,102033.17
2023-10-12T14:29:31.272Z,102031.44
2023-10-12T14:32:02.669Z,102030.58
2023-10-12T14:34:30.945Z,102027.80
2023-10-12T14:36:59.710Z,102032.01
2023-10-12T14:39:31.474Z,102037.92
2023-10-12T14:41:59.715Z,102037.26
2023-10-12T14:44:29.091Z,102035.48
2023-10-12T14:46:59.828Z,102039.68
2023-10-12T14:49:28.429Z,102037.85
2023-10-12T14:51:56.738Z,102039.70
2023-10-12T14:54:24.936Z,102036.59
2023-10-12T14:56:55.289Z,102032.91
2023-10-12T14:59:23.574Z,102032.47
2023-10-12T15:01:52.977Z,102030.83
2023-10-12T15:04:22.166Z,102033.99
2023-10-12T15:06:50.926Z,102032.91
2023-10-12T15:09:25.566Z,102029.43
2023-10-12T15:11:53.819Z,102027.10
2023-10-12T15:14:22.339Z,102028.09
2023-10-12T15:16:51.544Z,102028.31
2023-10-12T15:19:20.726Z,102030.67
2023-10-12T15:21:50.641Z,102034.52
2023-10-12T15:24:19.139Z,102030.87
2023-10-12T15:26:49.390Z,102027.08
2023-10-12T15:29:18.475Z,102029.79
2023-10-12T15:31:47.229Z,102029.73
2023-10-12T15:34:15.784Z,102029.02
2023-10-12T15:36:46.335Z,102029.73
2023-10-12T15:39:17.903Z,102026.99
2023-10-12T15:41:46.605Z,102032.52
2023-10-12T15:44:15.173Z,102033.73
2023-10-12T15:46:43.866Z,102033.58
2023-10-12T15:49:14.131Z,102039.67
2023-10-12T15:51:43.040Z,102037.66
2023-10-12T15:54:13.696Z,102036.23
2023-10-12T15:56:42.095Z,102036.11
2023-10-12T15:59:11.404Z,102037.17
2023-10-12T16:01:40.346Z,102035.89
2023-10-12T16:04:09.790Z,102039.70
2023-10-12T16:06:38.244Z,102038.26
2023-10-12T16:09:11.164Z,102038.58
2023-10-12T16:11:40.353Z,102038.92
2023-10-12T16:14:09.525Z,102036.75
2023-10-12T16:16:38.229Z,102036.95
2023-10-12T16:19:06.674Z,102038.01
2023-10-12T16:21:35.344Z,102036.77
2023-10-12T16:24:06.289Z,102037.41
2023-10-12T16:26:35.811Z,102035.14
2023-10-12T16:29:08.681Z,102038.58
2023-10-12T16:31:39.473Z,102040.28
2023-10-12T16:34:08.146Z,102040.86
2023-10-12T16:36:37.326Z,102044.64
2023-10-12T16:39:08.001Z,102046.33
2023-10-12T16:41:36.405Z,102043.98
2023-10-12T16:44:04.730Z,102039.02
2023-10-12T16:46:33.735Z,102039.01
2023-10-12T16:49:02.547Z,102037.90
2023-10-12T16:51:30.894Z,102035.55
2023-10-12T16:53:59.119Z,102034.14
2023-10-12T16:56:28.237Z,102037.37
2023-10-12T16:58:56.568Z,102036.02
2023-10-12T17:01:25.683Z,102039.85
2023-10-12T17:03:54.192Z,102039.82
2023-10-12T17:06:22.727Z,102040.69
2023-10-12T17:08:51.445Z,102039.13
2023-10-12T17:11:19.675Z,102040.97
2023-10-12T17:13:48.188Z,102039.29
2023-10-12T17:16:16.556Z,102037.67
2023-10-12T17:18:47.439Z,102037.00
2023-10-12T17:21:15.662Z,102035.98
2023-10-12T17:23:46.803Z,102037.00
2023-10-12T17:26:15.111Z,102036.50
2023-10-12T17:28:43.634Z,102034.52
2023-10-12T17:31:12.529Z,102038.19
2023-10-12T17:33:43.686Z,102039.48
2023-10-12T17:36:13.523Z,102040.38
2023-10-12T17:38:51.463Z,102041.39
2023-10-12T17:41:23.404Z,102040.69
2023-10-12T17:43:53.163Z,102042.23
2023-10-12T17:46:23.112Z,102044.46
2023-10-12T17:48:54.942Z,102045.88
2023-10-12T17:51:24.028Z,102047.08
2023-10-12T17:53:52.334Z,102046.66
2023-10-12T17:56:21.136Z,102043.73
2023-10-12T17:58:49.775Z,102042.48
2023-10-12T18:01:19.604Z,102050.51
2023-10-12T18:03:50.243Z,102049.29
2023-10-12T18:06:18.648Z,102045.36
2023-10-12T18:08:49.028Z,102049.02
2023-10-12T18:11:17.759Z,102047.69
2023-10-12T18:13:46.448Z,102051.89
2023-10-12T18:16:16.043Z,102051.98
2023-10-12T18:18:44.781Z,102053.34
2023-10-12T18:21:13.335Z,102053.73
2023-10-12T18:23:41.655Z,102050.95
2023-10-12T18:26:11.606Z,102051.52
2023-10-12T18:28:39.956Z,102047.98
2023-10-12T18:31:11.021Z,102051.73
2023-10-12T18:33:41.235Z,102047.61
2023-10-12T18:36:11.297Z,102049.80
2023-10-12T18:38:41.339Z,102052.36
2023-10-12T18:41:10.930Z,102047.49
2023-10-12T18:43:39.746Z,102050.92
2023-10-12T18:46:09.016Z,102051.92
2023-10-12T18:48:37.569Z,102047.35
2023-10-12T18:51:10.987Z,102047.15
2023-10-12T18:53:43.137Z,102048.34
2023-10-12T18:56:16.675Z,102048.05
2023-10-12T18:58:51.000Z,102045.70
2023-10-12T19:01:20.225Z,102047.77
2023-10-12T19:03:48.675Z,102049.94
2023-10-12T19:06:17.093Z,102048.52
2023-10-12T19:08:45.647Z,102046.35
2023-10-12T19:11:14.168Z,102045.56
2023-10-12T19:13:46.504Z,102048.34
2023-10-12T19:16:17.329Z,102044.38
2023-10-12T19:18:46.511Z,102047.82
2023-10-12T19:21:17.289Z,102050.63
2023-10-12T19:23:46.519Z,102050.86
2023-10-12T19:26:16.079Z,102047.20
2023-10-12T19:28:47.297Z,102042.90
2023-10-12T19:31:19.008Z,102040.22
2023-10-12T19:33:48.206Z,102040.27
2023-10-12T19:36:16.400Z,102036.14
2023-10-12T19:38:44.719Z,102034.59
2023-10-12T19:41:12.949Z,102030.38
2023-10-12T19:43:42.369Z,102027.17
2023-10-12T19:46:12.387Z,102023.50
2023-10-12T19:48:41.082Z,102022.20
2023-10-12T19:51:14.239Z,102024.98
2023-10-12T19:53:50.613Z,102024.38
2023-10-12T19:56:21.649Z,102022.83
2023-10-12T19:58:53.159Z,102022.67
2023-10-12T20:01:24.341Z,102019.89
2023-10-12T20:03:52.748Z,102017.20
2023-10-12T20:06:21.739Z,102017.11
2023-10-12T20:08:50.597Z,102015.09
2023-10-12T20:11:19.314Z,102010.43
2023-10-12T20:13:49.830Z,102007.20
2023-10-12T20:16:25.098Z,102008.96
2023-10-12T20:18:53.857Z,102003.89
2023-10-12T20:21:22.204Z,102005.76
2023-10-12T20:23:50.737Z,102002.70
2023-10-12T20:26:19.435Z,101999.28
2023-10-12T20:28:47.676Z,101990.33
2023-10-12T20:31:15.956Z,101986.58
2023-10-12T20:33:45.368Z,101985.70
2023-10-12T20:36:14.332Z,101985.29
2023-10-12T20:38:42.649Z,101983.55
2023-10-12T20:41:12.091Z,101985.40
2023-10-12T20:43:40.328Z,101985.06
2023-10-12T20:46:11.827Z,101983.97
2023-10-12T20:48:41.157Z,101980.40
2023-10-12T20:51:09.953Z,101975.17
2023-10-12T20:53:38.400Z,101977.96
2023-10-12T20:56:09.657Z,101976.27
2023-10-12T20:58:45.801Z,101974.26
2023-10-12T21:01:27.376Z,101975.20
2023-10-12T21:03:58.597Z,101972.39
2023-10-12T21:06:32.573Z,101969.25
2023-10-12T21:09:14.061Z,101970.40
2023-10-12T21:11:59.255Z,101971.17
2023-10-12T21:14:28.491Z,101972.18
2023-10-12T21:17:05.850Z,101970.42
2023-10-12T21:19:46.998Z,101964.99
2023-10-12T21:22:19.403Z,101965.30
2023-10-12T21:24:56.152Z,101960.48
2023-10-12T21:27:40.664Z,101957.29
2023-10-12T21:30:14.032Z,101953.64
2023-10-12T21:32:43.255Z,101952.14
2023-10-12T21:35:21.450Z,101950.11
2023-10-12T21:37:49.903Z,101947.67
2023-10-12T21:40:30.783Z,101945.98
2023-10-12T21:43:09.457Z,101941.42
2023-10-12T21:45:49.296Z,101939.50
2023-10-12T21:48:18.717Z,101941.05
2023-10-12T21:50:47.044Z,101945.63
2023-10-12T21:53:16.741Z,101947.29
2023-10-12T21:55:45.519Z,101943.23
2023-10-12T21:58:13.761Z,101943.63
2023-10-12T22:00:45.030Z,101945.27
2023-10-12T22:03:16.048Z,101944.64
2023-10-12T22:05:49.877Z,101948.84
2023-10-12T22:08:21.537Z,101943.86
2023-10-12T22:10:52.382Z,101940.59
2023-10-12T22:13:21.520Z,101934.91
2023-10-12T22:15:55.516Z,101933.58
2023-10-12T22:18:23.948Z,101929.67
2023-10-12T22:20:58.932Z,101930.10
2023-10-12T22:23:27.318Z,101931.70
2023-10-12T22:25:55.525Z,101933.96
2023-10-12T22:28:23.890Z,101932.64
2023-10-12T22:30:54.375Z,101937.52
2023-10-12T22:33:22.925Z,101938.59
2023-10-12T22:36:00.901Z,101935.21
2023-10-12T22:38:31.281Z,101936.14
2023-10-12T22:41:02.923Z,101940.40
2023-10-12T22:43:31.315Z,101938.01
2023-10-12T22:46:02.145Z,101940.17
2023-10-12T22:48:30.795Z,101940.61
2023-10-12T22:50:59.005Z,101939.85
2023-10-12T22:53:27.332Z,101937.98
2023-10-12T22:55:55.518Z,101933.09
2023-10-12T22:58:23.843Z,101930.33
2023-10-12T23:00:52.289Z,101927.52
2023-10-12T23:03:20.517Z,101927.46
2023-10-12T23:05:49.248Z,101928.83
2023-10-12T23:08:17.461Z,101927.67
2023-10-12T23:10:48.322Z,101923.44
2023-10-12T23:13:16.669Z,101918.42
2023-10-12T23:15:45.255Z,101917.88
2023-10-12T23:18:13.860Z,101914.75
2023-10-12T23:20:46.146Z,101912.66
2023-10-12T23:23:16.331Z,101915.02
2023-10-12T23:25:46.781Z,101914.07
2023-10-12T23:28:20.444Z,101908.70
2023-10-12T23:30:54.839Z,101903.83
2023-10-12T23:33:25.823Z,101899.60
2023-10-12T23:35:54.607Z,101893.70
2023-10-12T23:38:40.383Z,101895.67
2023-10-12T23:41:14.405Z,101893.44
2023-10-12T23:43:54.269Z,101885.76
2023-10-12T23:46:33.985Z,101878.52
2023-10-12T23:49:08.074Z,101877.39
2023-10-12T23:51:36.805Z,101874.92
2023-10-12T23:54:27.574Z,101879.41
2023-10-12T23:57:09.106Z,101881.08
2023-10-12T23:59:37.877Z,101880.02
